sensor_id;sensor_type;location;lat;lon;timestamp;temperature;humidity
72128;DHT22;60000;51.030;7.024;2023-03-01T00:02:10;-1.97;78.54
72128;DHT22;60000;51.030;7.024;2023-03-01T00:04:35;-1.97;78.52
72128;DHT22;60000;51.030;7.024;2023-03-01T00:07:01;-1.99;78.52
72128;DHT22;60000;51.030;7.024;2023-03-01T00:09:26;-1.97;78.80
72128;DHT22;60000;51.030;7.024;2023-03-01T00:11:51;-1.96;78.70
72128;DHT22;60000;51.030;7.024;2023-03-01T00:14:17;-1.96;78.81
72128;DHT22;60000;51.030;7.024;2023-03-01T00:16:43;-1.96;78.59
72128;DHT22;60000;51.030;7.024;2023-03-01T00:19:14;-1.97;78.83
72128;DHT22;60000;51.030;7.024;2023-03-01T00:21:41;-1.96;78.41
72128;DHT22;60000;51.030;7.024;2023-03-01T00:24:06;-2.00;78.48
72128;DHT22;60000;51.030;7.024;2023-03-01T00:26:32;-2.00;78.62
72128;DHT22;60000;51.030;7.024;2023-03-01T00:28:58;-1.97;78.48
72128;DHT22;60000;51.030;7.024;2023-03-01T00:31:26;-1.97;78.46
72128;DHT22;60000;51.030;7.024;2023-03-01T00:33:53;-1.99;78.52
72128;DHT22;60000;51.030;7.024;2023-03-01T00:36:27;-1.96;78.51
72128;DHT22;60000;51.030;7.024;2023-03-01T00:38:53;-1.93;78.50
72128;DHT22;60000;51.030;7.024;2023-03-01T00:41:19;-1.96;78.02
72128;DHT22;60000;51.030;7.024;2023-03-01T00:43:45;-1.93;78.21
72128;DHT22;60000;51.030;7.024;2023-03-01T00:46:13;-1.92;77.94
72128;DHT22;60000;51.030;7.024;2023-03-01T00:48:40;-1.94;77.47
72128;DHT22;60000;51.030;7.024;2023-03-01T00:51:07;-2.00;77.20
72128;DHT22;60000;51.030;7.024;2023-03-01T00:53:34;-2.04;77.17
72128;DHT22;60000;51.030;7.024;2023-03-01T00:56:00;-2.09;77.49
72128;DHT22;60000;51.030;7.024;2023-03-01T00:58:25;-2.09;77.52
72128;DHT22;60000;51.030;7.024;2023-03-01T01:00:51;-2.11;77.52
72128;DHT22;60000;51.030;7.024;2023-03-01T01:03:18;-2.15;77.44
72128;DHT22;60000;51.030;7.024;2023-03-01T01:05:43;-2.17;78.00
72128;DHT22;60000;51.030;7.024;2023-03-01T01:08:08;-2.15;78.17
72128;DHT22;60000;51.030;7.024;2023-03-01T01:10:34;-2.17;77.93
72128;DHT22;60000;51.030;7.024;2023-03-01T01:13:00;-2.22;77.43
72128;DHT22;60000;51.030;7.024;2023-03-01T01:15:25;-2.29;77.56
72128;DHT22;60000;51.030;7.024;2023-03-01T01:17:51;-2.34;77.50
72128;DHT22;60000;51.030;7.024;2023-03-01T01:20:16;-2.41;77.54
72128;DHT22;60000;51.030;7.024;2023-03-01T01:22:42;-2.45;77.79
72128;DHT22;60000;51.030;7.024;2023-03-01T01:25:07;-2.51;77.93
72128;DHT22;60000;51.030;7.024;2023-03-01T01:27:33;-2.54;78.23
72128;DHT22;60000;51.030;7.024;2023-03-01T01:29:59;-2.54;78.85
72128;DHT22;60000;51.030;7.024;2023-03-01T01:32:24;-2.55;78.85
72128;DHT22;60000;51.030;7.024;2023-03-01T01:34:49;-2.55;79.09
72128;DHT22;60000;51.030;7.024;2023-03-01T01:37:15;-2.60;79.05
72128;DHT22;60000;51.030;7.024;2023-03-01T01:39:40;-2.62;79.10
72128;DHT22;60000;51.030;7.024;2023-03-01T01:42:06;-2.61;79.49
72128;DHT22;60000;51.030;7.024;2023-03-01T01:44:33;-2.65;79.22
72128;DHT22;60000;51.030;7.024;2023-03-01T01:47:02;-2.68;79.36
72128;DHT22;60000;51.030;7.024;2023-03-01T01:49:33;-2.71;79.66
72128;DHT22;60000;51.030;7.024;2023-03-01T01:52:05;-2.71;79.80
72128;DHT22;60000;51.030;7.024;2023-03-01T01:54:50;-2.71;80.13
72128;DHT22;60000;51.030;7.024;2023-03-01T01:57:20;-2.71;80.31
72128;DHT22;60000;51.030;7.024;2023-03-01T01:59:51;-2.69;80.79
72128;DHT22;60000;51.030;7.024;2023-03-01T02:02:17;-2.71;80.69
72128;DHT22;60000;51.030;7.024;2023-03-01T02:04:43;-2.74;80.85
72128;DHT22;60000;51.030;7.024;2023-03-01T02:07:14;-2.76;80.87
72128;DHT22;60000;51.030;7.024;2023-03-01T02:09:47;-2.78;80.86
72128;DHT22;60000;51.030;7.024;2023-03-01T02:12:14;-2.82;80.70
72128;DHT22;60000;51.030;7.024;2023-03-01T02:14:41;-2.79;81.23
72128;DHT22;60000;51.030;7.024;2023-03-01T02:17:06;-2.81;81.33
72128;DHT22;60000;51.030;7.024;2023-03-01T02:22:26;-2.85;81.23
72128;DHT22;60000;51.030;7.024;2023-03-01T02:25:12;-2.88;81.58
72128;DHT22;60000;51.030;7.024;2023-03-01T02:30:34;-2.88;81.49
72128;DHT22;60000;51.030;7.024;2023-03-01T02:33:00;-2.93;81.47
72128;DHT22;60000;51.030;7.024;2023-03-01T02:35:29;-2.96;81.35
72128;DHT22;60000;51.030;7.024;2023-03-01T02:37:55;-2.97;81.42
72128;DHT22;60000;51.030;7.024;2023-03-01T02:40:22;-2.95;81.55
72128;DHT22;60000;51.030;7.024;2023-03-01T02:42:53;-3.02;80.99
72128;DHT22;60000;51.030;7.024;2023-03-01T02:45:20;-3.07;81.06
72128;DHT22;60000;51.030;7.024;2023-03-01T02:47:46;-3.13;81.17
72128;DHT22;60000;51.030;7.024;2023-03-01T02:53:10;-3.17;81.59
72128;DHT22;60000;51.030;7.024;2023-03-01T02:55:36;-3.23;81.48
72128;DHT22;60000;51.030;7.024;2023-03-01T02:58:03;-3.30;81.39
72128;DHT22;60000;51.030;7.024;2023-03-01T03:00:31;-3.34;81.44
72128;DHT22;60000;51.030;7.024;2023-03-01T03:02:58;-3.36;81.47
72128;DHT22;60000;51.030;7.024;2023-03-01T03:05:29;-3.46;81.25
72128;DHT22;60000;51.030;7.024;2023-03-01T03:07:56;-3.51;81.44
72128;DHT22;60000;51.030;7.024;2023-03-01T03:10:26;-3.54;81.87
72128;DHT22;60000;51.030;7.024;2023-03-01T03:13:00;-3.60;81.53
72128;DHT22;60000;51.030;7.024;2023-03-01T03:15:27;-3.67;81.42
72128;DHT22;60000;51.030;7.024;2023-03-01T03:17:53;-3.70;81.71
72128;DHT22;60000;51.030;7.024;2023-03-01T03:20:21;-3.74;81.60
72128;DHT22;60000;51.030;7.024;2023-03-01T03:22:50;-3.77;81.72
72128;DHT22;60000;51.030;7.024;2023-03-01T03:25:17;-3.82;81.83
72128;DHT22;60000;51.030;7.024;2023-03-01T03:27:44;-3.86;81.77
72128;DHT22;60000;51.030;7.024;2023-03-01T03:30:18;-3.88;82.23
72128;DHT22;60000;51.030;7.024;2023-03-01T03:32:46;-3.88;82.44
72128;DHT22;60000;51.030;7.024;2023-03-01T03:35:28;-3.93;81.97
72128;DHT22;60000;51.030;7.024;2023-03-01T03:37:56;-3.98;81.94
72128;DHT22;60000;51.030;7.024;2023-03-01T03:40:42;-4.02;81.92
72128;DHT22;60000;51.030;7.024;2023-03-01T03:43:14;-4.05;82.27
72128;DHT22;60000;51.030;7.024;2023-03-01T03:45:41;-4.07;82.29
72128;DHT22;60000;51.030;7.024;2023-03-01T03:48:08;-4.10;81.96
72128;DHT22;60000;51.030;7.024;2023-03-01T03:50:38;-4.13;82.49
72128;DHT22;60000;51.030;7.024;2023-03-01T03:53:06;-4.12;82.59
72128;DHT22;60000;51.030;7.024;2023-03-01T03:55:32;-4.16;82.14
72128;DHT22;60000;51.030;7.024;2023-03-01T03:58:00;-4.20;82.19
72128;DHT22;60000;51.030;7.024;2023-03-01T04:00:32;-4.24;82.19
72128;DHT22;60000;51.030;7.024;2023-03-01T04:02:58;-4.29;82.34
72128;DHT22;60000;51.030;7.024;2023-03-01T04:05:23;-4.30;82.55
72128;DHT22;60000;51.030;7.024;2023-03-01T04:07:49;-4.33;82.44
72128;DHT22;60000;51.030;7.024;2023-03-01T04:10:16;-4.37;82.26
72128;DHT22;60000;51.030;7.024;2023-03-01T04:12:42;-4.36;82.43
72128;DHT22;60000;51.030;7.024;2023-03-01T04:15:09;-4.42;82.18
72128;DHT22;60000;51.030;7.024;2023-03-01T04:17:45;-4.44;82.51
72128;DHT22;60000;51.030;7.024;2023-03-01T04:20:14;-4.47;82.44
72128;DHT22;60000;51.030;7.024;2023-03-01T04:22:42;-4.50;82.51
72128;DHT22;60000;51.030;7.024;2023-03-01T04:25:08;-4.50;82.80
72128;DHT22;60000;51.030;7.024;2023-03-01T04:27:35;-4.52;82.58
72128;DHT22;60000;51.030;7.024;2023-03-01T04:30:01;-4.54;82.40
72128;DHT22;60000;51.030;7.024;2023-03-01T04:32:26;-4.57;82.70
72128;DHT22;60000;51.030;7.024;2023-03-01T04:34:51;-4.58;82.70
72128;DHT22;60000;51.030;7.024;2023-03-01T04:37:17;-4.58;82.91
72128;DHT22;60000;51.030;7.024;2023-03-01T04:39:42;-4.58;83.12
72128;DHT22;60000;51.030;7.024;2023-03-01T04:42:13;-4.61;82.72
72128;DHT22;60000;51.030;7.024;2023-03-01T04:44:38;-4.61;83.02
72128;DHT22;60000;51.030;7.024;2023-03-01T04:47:04;-4.64;82.99
72128;DHT22;60000;51.030;7.024;2023-03-01T04:49:29;-4.63;83.04
72128;DHT22;60000;51.030;7.024;2023-03-01T04:51:55;-4.65;83.13
72128;DHT22;60000;51.030;7.024;2023-03-01T04:54:23;-4.64;83.30
72128;DHT22;60000;51.030;7.024;2023-03-01T04:56:48;-4.67;83.71
72128;DHT22;60000;51.030;7.024;2023-03-01T04:59:14;-4.70;83.46
72128;DHT22;60000;51.030;7.024;2023-03-01T05:01:39;-4.73;83.70
72128;DHT22;60000;51.030;7.024;2023-03-01T05:04:07;-4.73;83.78
72128;DHT22;60000;51.030;7.024;2023-03-01T05:06:38;-4.74;84.14
72128;DHT22;60000;51.030;7.024;2023-03-01T05:09:03;-4.74;83.95
72128;DHT22;60000;51.030;7.024;2023-03-01T05:11:28;-4.75;84.11
72128;DHT22;60000;51.030;7.024;2023-03-01T05:13:58;-4.77;84.01
72128;DHT22;60000;51.030;7.024;2023-03-01T05:16:24;-4.81;83.82
72128;DHT22;60000;51.030;7.024;2023-03-01T05:18:49;-4.81;84.31
72128;DHT22;60000;51.030;7.024;2023-03-01T05:21:16;-4.82;84.15
72128;DHT22;60000;51.030;7.024;2023-03-01T05:23:42;-4.81;84.39
72128;DHT22;60000;51.030;7.024;2023-03-01T05:26:08;-4.84;84.22
72128;DHT22;60000;51.030;7.024;2023-03-01T05:28:34;-4.89;84.24
72128;DHT22;60000;51.030;7.024;2023-03-01T05:31:00;-4.85;84.71
72128;DHT22;60000;51.030;7.024;2023-03-01T05:33:25;-4.88;84.46
72128;DHT22;60000;51.030;7.024;2023-03-01T05:35:51;-4.87;84.84
72128;DHT22;60000;51.030;7.024;2023-03-01T05:38:18;-4.88;84.91
72128;DHT22;60000;51.030;7.024;2023-03-01T05:40:47;-4.88;84.71
72128;DHT22;60000;51.030;7.024;2023-03-01T05:43:13;-4.75;86.77
72128;DHT22;60000;51.030;7.024;2023-03-01T05:45:40;-4.68;85.71
72128;DHT22;60000;51.030;7.024;2023-03-01T05:48:06;-4.61;85.63
72128;DHT22;60000;51.030;7.024;2023-03-01T05:50:37;-4.58;85.37
72128;DHT22;60000;51.030;7.024;2023-03-01T05:53:25;-4.56;85.11
72128;DHT22;60000;51.030;7.024;2023-03-01T05:55:51;-4.56;84.97
72128;DHT22;60000;51.030;7.024;2023-03-01T05:58:19;-4.58;84.48
72128;DHT22;60000;51.030;7.024;2023-03-01T06:00:46;-4.58;84.69
72128;DHT22;60000;51.030;7.024;2023-03-01T06:03:13;-4.60;84.71
72128;DHT22;60000;51.030;7.024;2023-03-01T06:05:39;-4.61;84.43
72128;DHT22;60000;51.030;7.024;2023-03-01T06:08:05;-4.63;84.41
72128;DHT22;60000;51.030;7.024;2023-03-01T06:10:31;-4.61;84.59
72128;DHT22;60000;51.030;7.024;2023-03-01T06:12:57;-4.61;84.63
72128;DHT22;60000;51.030;7.024;2023-03-01T06:15:23;-4.67;84.58
72128;DHT22;60000;51.030;7.024;2023-03-01T06:17:49;-4.68;84.38
72128;DHT22;60000;51.030;7.024;2023-03-01T06:20:19;-4.71;84.29
72128;DHT22;60000;51.030;7.024;2023-03-01T06:22:44;-4.71;84.28
72128;DHT22;60000;51.030;7.024;2023-03-01T06:25:11;-4.73;84.78
72128;DHT22;60000;51.030;7.024;2023-03-01T06:27:37;-4.73;84.71
72128;DHT22;60000;51.030;7.024;2023-03-01T06:30:03;-4.71;84.73
72128;DHT22;60000;51.030;7.024;2023-03-01T06:32:29;-4.73;84.66
72128;DHT22;60000;51.030;7.024;2023-03-01T06:34:55;-4.75;84.59
72128;DHT22;60000;51.030;7.024;2023-03-01T06:37:20;-4.70;85.08
72128;DHT22;60000;51.030;7.024;2023-03-01T06:39:46;-4.68;84.96
72128;DHT22;60000;51.030;7.024;2023-03-01T06:42:11;-4.68;85.04
72128;DHT22;60000;51.030;7.024;2023-03-01T06:44:37;-4.64;85.20
72128;DHT22;60000;51.030;7.024;2023-03-01T06:47:03;-4.64;85.07
72128;DHT22;60000;51.030;7.024;2023-03-01T06:49:28;-4.58;85.33
72128;DHT22;60000;51.030;7.024;2023-03-01T06:51:54;-4.54;85.19
72128;DHT22;60000;51.030;7.024;2023-03-01T06:54:19;-4.52;85.34
72128;DHT22;60000;51.030;7.024;2023-03-01T06:56:47;-4.47;85.43
72128;DHT22;60000;51.030;7.024;2023-03-01T06:59:13;-4.42;85.80
72128;DHT22;60000;51.030;7.024;2023-03-01T07:01:38;-4.27;86.33
72128;DHT22;60000;51.030;7.024;2023-03-01T07:04:04;-4.12;86.28
72128;DHT22;60000;51.030;7.024;2023-03-01T07:06:29;-3.98;85.95
72128;DHT22;60000;51.030;7.024;2023-03-01T07:08:55;-3.86;85.46
72128;DHT22;60000;51.030;7.024;2023-03-01T07:11:20;-3.72;85.83
72128;DHT22;60000;51.030;7.024;2023-03-01T07:13:45;-3.61;85.13
72128;DHT22;60000;51.030;7.024;2023-03-01T07:16:11;-3.44;85.08
72128;DHT22;60000;51.030;7.024;2023-03-01T07:18:36;-3.39;84.61
72128;DHT22;60000;51.030;7.024;2023-03-01T07:21:09;-3.36;83.90
72128;DHT22;60000;51.030;7.024;2023-03-01T07:23:36;-3.23;83.79
72128;DHT22;60000;51.030;7.024;2023-03-01T07:26:01;-3.21;83.58
72128;DHT22;60000;51.030;7.024;2023-03-01T07:28:27;-3.12;83.61
72128;DHT22;60000;51.030;7.024;2023-03-01T07:30:53;-3.03;83.44
72128;DHT22;60000;51.030;7.024;2023-03-01T07:33:18;-2.97;83.08
72128;DHT22;60000;51.030;7.024;2023-03-01T07:35:44;-2.95;82.92
72128;DHT22;60000;51.030;7.024;2023-03-01T07:38:09;-2.82;82.97
72128;DHT22;60000;51.030;7.024;2023-03-01T07:40:34;-2.72;83.13
72128;DHT22;60000;51.030;7.024;2023-03-01T07:43:00;-2.60;82.63
72128;DHT22;60000;51.030;7.024;2023-03-01T07:45:26;-2.50;82.33
72128;DHT22;60000;51.030;7.024;2023-03-01T07:47:52;-2.29;81.57
72128;DHT22;60000;51.030;7.024;2023-03-01T07:50:19;-2.13;81.54
72128;DHT22;60000;51.030;7.024;2023-03-01T07:52:46;-1.99;81.39
72128;DHT22;60000;51.030;7.024;2023-03-01T07:55:11;-1.68;82.66
72128;DHT22;60000;51.030;7.024;2023-03-01T07:57:37;-1.31;82.74
72128;DHT22;60000;51.030;7.024;2023-03-01T08:00:03;-0.83;81.26
72128;DHT22;60000;51.030;7.024;2023-03-01T08:02:28;-0.22;83.18
72128;DHT22;60000;51.030;7.024;2023-03-01T08:04:53;0.33;79.65
72128;DHT22;60000;51.030;7.024;2023-03-01T08:07:19;0.91;78.96
72128;DHT22;60000;51.030;7.024;2023-03-01T08:09:44;1.47;76.40
72128;DHT22;60000;51.030;7.024;2023-03-01T08:12:10;1.97;74.03
72128;DHT22;60000;51.030;7.024;2023-03-01T08:14:35;2.42;71.90
72128;DHT22;60000;51.030;7.024;2023-03-01T08:17:00;2.79;68.17
72128;DHT22;60000;51.030;7.024;2023-03-01T08:19:28;3.16;67.22
72128;DHT22;60000;51.030;7.024;2023-03-01T08:21:53;3.62;66.55
72128;DHT22;60000;51.030;7.024;2023-03-01T08:24:18;4.01;63.77
72128;DHT22;60000;51.030;7.024;2023-03-01T08:26:44;4.41;62.11
72128;DHT22;60000;51.030;7.024;2023-03-01T08:29:09;4.77;60.07
72128;DHT22;60000;51.030;7.024;2023-03-01T08:31:36;4.94;57.66
72128;DHT22;60000;51.030;7.024;2023-03-01T08:34:05;5.19;57.58
72128;DHT22;60000;51.030;7.024;2023-03-01T08:36:34;5.40;56.15
72128;DHT22;60000;51.030;7.024;2023-03-01T08:39:00;5.61;53.40
72128;DHT22;60000;51.030;7.024;2023-03-01T08:41:26;5.79;52.08
72128;DHT22;60000;51.030;7.024;2023-03-01T08:43:51;5.98;52.35
72128;DHT22;60000;51.030;7.024;2023-03-01T08:46:18;6.16;51.14
72128;DHT22;60000;51.030;7.024;2023-03-01T08:48:43;6.22;50.44
72128;DHT22;60000;51.030;7.024;2023-03-01T08:51:16;6.47;50.38
72128;DHT22;60000;51.030;7.024;2023-03-01T08:53:42;6.37;49.87
72128;DHT22;60000;51.030;7.024;2023-03-01T08:56:08;6.63;48.51
72128;DHT22;60000;51.030;7.024;2023-03-01T08:58:33;7.03;50.17
72128;DHT22;60000;51.030;7.024;2023-03-01T09:00:59;7.13;48.79
72128;DHT22;60000;51.030;7.024;2023-03-01T09:03:25;7.40;47.18
72128;DHT22;60000;51.030;7.024;2023-03-01T09:05:51;7.60;47.87
72128;DHT22;60000;51.030;7.024;2023-03-01T09:08:17;7.75;45.81
72128;DHT22;60000;51.030;7.024;2023-03-01T09:10:43;8.02;45.81
72128;DHT22;60000;51.030;7.024;2023-03-01T09:13:09;8.26;46.13
72128;DHT22;60000;51.030;7.024;2023-03-01T09:15:36;8.19;44.21
72128;DHT22;60000;51.030;7.024;2023-03-01T09:18:02;8.29;43.20
72128;DHT22;60000;51.030;7.024;2023-03-01T09:20:28;8.35;43.14
72128;DHT22;60000;51.030;7.024;2023-03-01T09:22:55;8.38;42.78
72128;DHT22;60000;51.030;7.024;2023-03-01T09:25:21;8.56;44.51
72128;DHT22;60000;51.030;7.024;2023-03-01T09:27:46;8.87;42.93
72128;DHT22;60000;51.030;7.024;2023-03-01T09:30:12;9.05;42.17
72128;DHT22;60000;51.030;7.024;2023-03-01T09:32:37;9.00;41.57
72128;DHT22;60000;51.030;7.024;2023-03-01T09:35:03;9.15;40.53
72128;DHT22;60000;51.030;7.024;2023-03-01T09:37:33;9.31;40.89
72128;DHT22;60000;51.030;7.024;2023-03-01T09:39:59;9.42;40.99
72128;DHT22;60000;51.030;7.024;2023-03-01T09:42:25;9.42;40.05
72128;DHT22;60000;51.030;7.024;2023-03-01T09:45:25;9.45;39.77
72128;DHT22;60000;51.030;7.024;2023-03-01T09:47:51;9.53;39.81
72128;DHT22;60000;51.030;7.024;2023-03-01T09:50:18;9.32;40.10
72128;DHT22;60000;51.030;7.024;2023-03-01T09:52:53;9.60;40.56
72128;DHT22;60000;51.030;7.024;2023-03-01T09:55:48;9.69;39.05
72128;DHT22;60000;51.030;7.024;2023-03-01T09:58:38;9.82;38.85
72128;DHT22;60000;51.030;7.024;2023-03-01T10:01:31;9.91;39.48
72128;DHT22;60000;51.030;7.024;2023-03-01T10:07:02;9.96;37.47
72128;DHT22;60000;51.030;7.024;2023-03-01T10:09:33;9.93;39.15
72128;DHT22;60000;51.030;7.024;2023-03-01T10:12:00;9.94;38.64
72128;DHT22;60000;51.030;7.024;2023-03-01T10:17:26;10.11;38.38
72128;DHT22;60000;51.030;7.024;2023-03-01T10:19:52;10.34;38.96
72128;DHT22;60000;51.030;7.024;2023-03-01T10:22:26;10.49;38.14
72128;DHT22;60000;51.030;7.024;2023-03-01T10:24:54;10.47;37.69
72128;DHT22;60000;51.030;7.024;2023-03-01T10:27:24;10.20;36.77
72128;DHT22;60000;51.030;7.024;2023-03-01T10:30:05;10.24;38.03
72128;DHT22;60000;51.030;7.024;2023-03-01T10:32:34;10.11;38.00
72128;DHT22;60000;51.030;7.024;2023-03-01T10:34:59;10.36;39.32
72128;DHT22;60000;51.030;7.024;2023-03-01T10:37:25;10.54;37.75
72128;DHT22;60000;51.030;7.024;2023-03-01T10:40:07;10.64;36.62
72128;DHT22;60000;51.030;7.024;2023-03-01T10:42:46;10.76;37.65
72128;DHT22;60000;51.030;7.024;2023-03-01T10:48:23;10.98;36.80
72128;DHT22;60000;51.030;7.024;2023-03-01T10:53:34;10.93;34.82
72128;DHT22;60000;51.030;7.024;2023-03-01T10:56:10;10.83;34.85
72128;DHT22;60000;51.030;7.024;2023-03-01T10:58:38;10.48;36.64
72128;DHT22;60000;51.030;7.024;2023-03-01T11:01:25;10.71;37.03
72128;DHT22;60000;51.030;7.024;2023-03-01T11:04:12;10.83;36.96
72128;DHT22;60000;51.030;7.024;2023-03-01T11:06:39;10.45;36.02
72128;DHT22;60000;51.030;7.024;2023-03-01T11:09:23;10.54;38.78
72128;DHT22;60000;51.030;7.024;2023-03-01T11:11:54;10.72;37.64
72128;DHT22;60000;51.030;7.024;2023-03-01T11:14:21;10.44;35.80
72128;DHT22;60000;51.030;7.024;2023-03-01T11:16:57;10.51;36.09
72128;DHT22;60000;51.030;7.024;2023-03-01T11:19:23;10.01;36.29
72128;DHT22;60000;51.030;7.024;2023-03-01T11:22:11;9.76;37.30
72128;DHT22;60000;51.030;7.024;2023-03-01T11:24:49;9.78;38.85
72128;DHT22;60000;51.030;7.024;2023-03-01T11:27:21;10.14;38.38
72128;DHT22;60000;51.030;7.024;2023-03-01T11:30:21;10.06;36.38
72128;DHT22;60000;51.030;7.024;2023-03-01T11:35:21;10.41;36.74
72128;DHT22;60000;51.030;7.024;2023-03-01T11:37:56;10.62;36.22
72128;DHT22;60000;51.030;7.024;2023-03-01T11:40:35;10.65;37.23
72128;DHT22;60000;51.030;7.024;2023-03-01T11:48:56;11.19;35.50
72128;DHT22;60000;51.030;7.024;2023-03-01T11:51:58;11.41;36.61
72128;DHT22;60000;51.030;7.024;2023-03-01T11:57:14;10.72;35.38
72128;DHT22;60000;51.030;7.024;2023-03-01T12:05:20;10.76;36.15
72128;DHT22;60000;51.030;7.024;2023-03-01T12:08:14;10.76;35.92
72128;DHT22;60000;51.030;7.024;2023-03-01T12:10:45;10.79;35.60
72128;DHT22;60000;51.030;7.024;2023-03-01T12:19:21;10.36;36.15
72128;DHT22;60000;51.030;7.024;2023-03-01T12:27:36;10.20;36.50
72128;DHT22;60000;51.030;7.024;2023-03-01T12:30:21;10.04;36.47
72128;DHT22;60000;51.030;7.024;2023-03-01T12:35:35;9.99;36.34
72128;DHT22;60000;51.030;7.024;2023-03-01T12:38:19;9.93;38.03
72128;DHT22;60000;51.030;7.024;2023-03-01T12:43:44;9.78;37.08
72128;DHT22;60000;51.030;7.024;2023-03-01T12:46:28;9.85;38.00
72128;DHT22;60000;51.030;7.024;2023-03-01T12:49:13;9.91;37.34
72128;DHT22;60000;51.030;7.024;2023-03-01T12:51:40;9.97;37.13
72128;DHT22;60000;51.030;7.024;2023-03-01T12:54:20;9.90;35.55
72128;DHT22;60000;51.030;7.024;2023-03-01T12:56:48;9.97;36.56
72128;DHT22;60000;51.030;7.024;2023-03-01T12:59:36;10.22;37.42
72128;DHT22;60000;51.030;7.024;2023-03-01T13:02:19;10.28;35.49
72128;DHT22;60000;51.030;7.024;2023-03-01T13:07:52;10.11;35.80
72128;DHT22;60000;51.030;7.024;2023-03-01T13:10:24;9.96;35.46
72128;DHT22;60000;51.030;7.024;2023-03-01T13:17:51;10.11;36.52
72128;DHT22;60000;51.030;7.024;2023-03-01T13:20:20;10.16;36.39
72128;DHT22;60000;51.030;7.024;2023-03-01T13:22:46;10.18;35.67
72128;DHT22;60000;51.030;7.024;2023-03-01T13:25:16;10.11;35.38
72128;DHT22;60000;51.030;7.024;2023-03-01T13:27:43;10.14;35.20
72128;DHT22;60000;51.030;7.024;2023-03-01T13:30:39;10.11;36.21
72128;DHT22;60000;51.030;7.024;2023-03-01T13:33:40;9.97;35.85
72128;DHT22;60000;51.030;7.024;2023-03-01T13:36:08;9.96;35.07
72128;DHT22;60000;51.030;7.024;2023-03-01T13:38:46;9.87;34.97
72128;DHT22;60000;51.030;7.024;2023-03-01T13:41:17;9.79;35.08
72128;DHT22;60000;51.030;7.024;2023-03-01T13:44:12;9.89;36.27
72128;DHT22;60000;51.030;7.024;2023-03-01T13:46:38;10.01;36.68
72128;DHT22;60000;51.030;7.024;2023-03-01T13:49:03;10.03;35.37
72128;DHT22;60000;51.030;7.024;2023-03-01T13:51:29;10.16;35.86
72128;DHT22;60000;51.030;7.024;2023-03-01T13:53:56;10.06;34.89
72128;DHT22;60000;51.030;7.024;2023-03-01T13:56:36;10.10;35.60
72128;DHT22;60000;51.030;7.024;2023-03-01T13:59:05;10.21;36.49
72128;DHT22;60000;51.030;7.024;2023-03-01T14:01:32;10.13;35.91
72128;DHT22;60000;51.030;7.024;2023-03-01T14:03:58;10.21;36.06
72128;DHT22;60000;51.030;7.024;2023-03-01T14:06:32;10.09;36.52
72128;DHT22;60000;51.030;7.024;2023-03-01T14:09:16;9.93;36.85
72128;DHT22;60000;51.030;7.024;2023-03-01T14:12:02;9.76;37.35
72128;DHT22;60000;51.030;7.024;2023-03-01T14:14:31;9.58;38.29
72128;DHT22;60000;51.030;7.024;2023-03-01T14:19:55;9.58;39.88
72128;DHT22;60000;51.030;7.024;2023-03-01T14:22:27;9.48;40.55
72128;DHT22;60000;51.030;7.024;2023-03-01T14:24:59;9.53;40.32
72128;DHT22;60000;51.030;7.024;2023-03-01T14:27:33;9.56;40.39
72128;DHT22;60000;51.030;7.024;2023-03-01T14:30:09;9.65;40.19
72128;DHT22;60000;51.030;7.024;2023-03-01T14:32:37;9.70;40.45
72128;DHT22;60000;51.030;7.024;2023-03-01T14:35:19;9.76;40.95
72128;DHT22;60000;51.030;7.024;2023-03-01T14:37:45;9.63;40.62
72128;DHT22;60000;51.030;7.024;2023-03-01T14:40:37;9.45;40.84
72128;DHT22;60000;51.030;7.024;2023-03-01T14:43:11;9.31;41.88
72128;DHT22;60000;51.030;7.024;2023-03-01T14:45:37;9.36;41.55
72128;DHT22;60000;51.030;7.024;2023-03-01T14:48:04;9.27;41.90
72128;DHT22;60000;51.030;7.024;2023-03-01T14:50:32;9.14;41.98
72128;DHT22;60000;51.030;7.024;2023-03-01T14:53:01;9.05;41.67
72128;DHT22;60000;51.030;7.024;2023-03-01T14:55:38;9.03;42.17
72128;DHT22;60000;51.030;7.024;2023-03-01T14:58:12;9.05;42.86
72128;DHT22;60000;51.030;7.024;2023-03-01T15:00:38;9.20;42.88
72128;DHT22;60000;51.030;7.024;2023-03-01T15:03:24;9.25;42.28
72128;DHT22;60000;51.030;7.024;2023-03-01T15:05:51;9.18;41.85
72128;DHT22;60000;51.030;7.024;2023-03-01T15:08:19;9.18;42.12
72128;DHT22;60000;51.030;7.024;2023-03-01T15:13:38;8.92;41.16
72128;DHT22;60000;51.030;7.024;2023-03-01T15:16:05;8.80;41.65
72128;DHT22;60000;51.030;7.024;2023-03-01T15:18:31;8.60;42.15
72128;DHT22;60000;51.030;7.024;2023-03-01T15:21:09;8.53;41.85
72128;DHT22;60000;51.030;7.024;2023-03-01T15:23:40;8.42;41.90
72128;DHT22;60000;51.030;7.024;2023-03-01T15:26:06;8.33;42.70
72128;DHT22;60000;51.030;7.024;2023-03-01T15:28:38;8.31;42.93
72128;DHT22;60000;51.030;7.024;2023-03-01T15:31:19;8.33;42.69
72128;DHT22;60000;51.030;7.024;2023-03-01T15:33:46;8.32;42.45
72128;DHT22;60000;51.030;7.024;2023-03-01T15:36:35;8.28;42.86
72128;DHT22;60000;51.030;7.024;2023-03-01T15:39:05;8.19;42.63
72128;DHT22;60000;51.030;7.024;2023-03-01T15:41:49;8.22;43.26
72128;DHT22;60000;51.030;7.024;2023-03-01T15:44:16;8.22;42.56
72128;DHT22;60000;51.030;7.024;2023-03-01T15:46:46;8.25;42.95
72128;DHT22;60000;51.030;7.024;2023-03-01T15:49:39;8.31;43.55
72128;DHT22;60000;51.030;7.024;2023-03-01T15:52:41;8.31;42.78
72128;DHT22;60000;51.030;7.024;2023-03-01T15:55:04;8.29;42.93
72128;DHT22;60000;51.030;7.024;2023-03-01T15:57:30;8.24;42.44
72128;DHT22;60000;51.030;7.024;2023-03-01T15:59:56;8.08;43.26
72128;DHT22;60000;51.030;7.024;2023-03-01T16:02:22;7.98;43.17
72128;DHT22;60000;51.030;7.024;2023-03-01T16:04:48;7.91;43.47
72128;DHT22;60000;51.030;7.024;2023-03-01T16:07:14;7.82;43.73
72128;DHT22;60000;51.030;7.024;2023-03-01T16:09:39;7.74;44.03
72128;DHT22;60000;51.030;7.024;2023-03-01T16:12:05;7.60;43.83
72128;DHT22;60000;51.030;7.024;2023-03-01T16:14:31;7.54;44.32
72128;DHT22;60000;51.030;7.024;2023-03-01T16:16:56;7.49;44.78
72128;DHT22;60000;51.030;7.024;2023-03-01T16:19:21;7.43;44.38
72128;DHT22;60000;51.030;7.024;2023-03-01T16:21:47;7.39;44.17
72128;DHT22;60000;51.030;7.024;2023-03-01T16:24:13;7.32;44.57
72128;DHT22;60000;51.030;7.024;2023-03-01T16:26:39;7.27;44.98
72128;DHT22;60000;51.030;7.024;2023-03-01T16:29:04;7.18;44.92
72128;DHT22;60000;51.030;7.024;2023-03-01T16:31:31;7.11;44.52
72128;DHT22;60000;51.030;7.024;2023-03-01T16:33:57;7.02;44.95
72128;DHT22;60000;51.030;7.024;2023-03-01T16:36:24;7.01;44.72
72128;DHT22;60000;51.030;7.024;2023-03-01T16:38:51;6.92;44.95
72128;DHT22;60000;51.030;7.024;2023-03-01T16:41:19;6.88;45.07
72128;DHT22;60000;51.030;7.024;2023-03-01T16:43:46;6.82;45.40
72128;DHT22;60000;51.030;7.024;2023-03-01T16:46:17;6.77;45.09
72128;DHT22;60000;51.030;7.024;2023-03-01T16:48:43;6.71;45.16
72128;DHT22;60000;51.030;7.024;2023-03-01T16:51:09;6.64;45.35
72128;DHT22;60000;51.030;7.024;2023-03-01T16:53:35;6.51;45.93
72128;DHT22;60000;51.030;7.024;2023-03-01T16:56:02;6.45;45.86
72128;DHT22;60000;51.030;7.024;2023-03-01T16:58:28;6.36;46.09